createdAt,value
2022-12-23T00:01:05.568Z,96668.25
2022-12-23T00:05:07.185Z,96660.38
2022-12-23T00:09:09.842Z,96659.28
2022-12-23T00:13:11.602Z,96652.25
2022-12-23T00:17:22.128Z,96648.31
2022-12-23T00:21:24.154Z,96631.91
2022-12-23T00:25:27.112Z,96613.47
2022-12-23T00:29:28.563Z,96607.47
2022-12-23T00:33:30.699Z,96603.00
2022-12-23T00:37:31.999Z,96602.28
2022-12-23T00:41:35.071Z,96588.84
2022-12-23T00:45:36.461Z,96605.72
2022-12-23T00:49:38.003Z,96591.66
2022-12-23T00:53:39.331Z,96593.34
2022-12-23T00:57:42.025Z,96586.50
2022-12-23T01:01:43.399Z,96587.59
2022-12-23T01:05:44.772Z,96582.91
2022-12-23T01:09:46.157Z,96588.22
2022-12-23T01:13:48.818Z,96586.91
2022-12-23T01:17:50.145Z,96593.63
2022-12-23T01:21:51.533Z,96594.63
2022-12-23T01:25:56.385Z,96587.41
2022-12-23T01:29:59.040Z,96592.91
2022-12-23T01:34:00.368Z,96586.88
2022-12-23T01:38:01.820Z,96586.00
2022-12-23T01:42:03.263Z,96577.81
2022-12-23T01:46:06.022Z,96569.47
2022-12-23T01:50:09.568Z,96572.44
2022-12-23T01:54:10.893Z,96584.03
2022-12-23T01:58:13.353Z,96579.22
2022-12-23T02:02:16.168Z,96578.53
2022-12-23T02:06:19.589Z,96574.97
2022-12-23T02:10:23.194Z,96577.19
2022-12-23T02:14:29.751Z,96585.91
2022-12-23T02:18:38.217Z,96584.56
2022-12-23T02:22:54.107Z,96592.22
2022-12-23T02:27:15.096Z,96583.38
2022-12-23T02:31:23.848Z,96586.13
2022-12-23T02:35:29.406Z,96584.00
2022-12-23T02:39:35.807Z,96586.53
2022-12-23T02:43:42.030Z,96588.34
2022-12-23T02:47:48.001Z,96581.19
2022-12-23T02:51:50.810Z,96575.22
2022-12-23T02:55:53.326Z,96582.25
2022-12-23T02:59:55.847Z,96576.94
2022-12-23T03:03:58.868Z,96572.53
2022-12-23T03:08:02.444Z,96572.25
2022-12-23T03:12:06.972Z,96557.84
2022-12-23T03:16:11.829Z,96566.59
2022-12-23T03:20:20.861Z,96557.97
2022-12-23T03:24:25.086Z,96561.91
2022-12-23T03:28:30.749Z,96550.81
2022-12-23T03:32:35.256Z,96552.56
2022-12-23T03:36:40.076Z,96547.66
2022-12-23T03:40:43.512Z,96558.34
2022-12-23T03:45:10.681Z,96553.16
2022-12-23T03:49:09.236Z,96555.41
2022-12-23T03:53:14.508Z,96556.81
2022-12-23T03:57:16.185Z,96558.94
2022-12-23T04:01:23.167Z,96559.47
2022-12-23T04:05:26.548Z,96567.19
2022-12-23T04:09:29.293Z,96565.22
2022-12-23T04:13:31.111Z,96567.19
2022-12-23T04:17:33.058Z,96564.34
2022-12-23T04:21:34.383Z,96562.66
2022-12-23T04:25:37.064Z,96571.47
2022-12-23T04:29:38.372Z,96564.16
2022-12-23T04:33:39.682Z,96577.81
2022-12-23T04:37:41.025Z,96575.34
2022-12-23T04:41:43.765Z,96572.72
2022-12-23T04:45:49.418Z,96580.66
2022-12-23T04:49:50.754Z,96575.34
2022-12-23T04:53:52.109Z,96578.69
2022-12-23T04:57:54.803Z,96579.63
2022-12-23T05:01:56.212Z,96576.78
2022-12-23T05:05:57.917Z,96573.00
2022-12-23T05:09:59.226Z,96575.34
2022-12-23T05:14:01.907Z,96577.38
2022-12-23T05:18:03.418Z,96578.97
2022-12-23T05:22:04.816Z,96589.88
2022-12-23T05:26:06.261Z,96592.41
2022-12-23T05:30:09.838Z,96592.91
2022-12-23T05:34:11.226Z,96598.63
2022-12-23T05:38:12.604Z,96603.63
2022-12-23T05:42:13.976Z,96605.44
2022-12-23T05:46:19.920Z,96603.81
2022-12-23T05:50:25.778Z,96609.50
2022-12-23T05:54:27.117Z,96604.06
2022-12-23T05:58:28.480Z,96610.00
2022-12-23T06:02:31.356Z,96605.00
2022-12-23T06:06:32.850Z,96613.78
2022-12-23T06:10:34.189Z,96619.97
2022-12-23T06:14:35.548Z,96617.78
2022-12-23T06:18:38.233Z,96617.59
2022-12-23T06:22:39.550Z,96626.03
2022-12-23T06:26:41.624Z,96628.94
2022-12-23T06:30:43.009Z,96633.06
2022-12-23T06:34:45.742Z,96639.19
2022-12-23T06:38:47.123Z,96646.47
2022-12-23T06:42:48.550Z,96652.88
2022-12-23T06:46:49.985Z,96663.28
2022-12-23T06:50:52.739Z,96659.91
2022-12-23T06:54:54.089Z,96667.69
2022-12-23T06:58:55.460Z,96668.59
2022-12-23T07:02:56.851Z,96672.78
2022-12-23T07:06:59.598Z,96677.06
2022-12-23T07:11:01.510Z,96677.00
2022-12-23T07:15:02.937Z,96680.16
2022-12-23T07:19:04.361Z,96688.94
2022-12-23T07:23:07.083Z,96702.59
2022-12-23T07:27:08.418Z,96707.09
2022-12-23T07:31:09.835Z,96712.44
2022-12-23T07:35:11.222Z,96712.88
2022-12-23T07:39:13.934Z,96725.50
2022-12-23T07:43:15.337Z,96715.81
2022-12-23T07:47:16.674Z,96731.63
2022-12-23T07:51:18.043Z,96739.97
2022-12-23T07:55:21.015Z,96746.09
2022-12-23T07:59:24.885Z,96738.25
2022-12-23T08:03:26.259Z,96743.06
2022-12-23T08:07:27.646Z,96742.63
2022-12-23T08:11:30.364Z,96754.06
2022-12-23T08:15:31.698Z,96749.47
2022-12-23T08:19:33.063Z,96758.00
2022-12-23T08:23:34.433Z,96754.03
2022-12-23T08:27:37.123Z,96759.03
2022-12-23T08:31:38.470Z,96757.28
2022-12-23T08:35:39.809Z,96758.34
2022-12-23T08:39:41.139Z,96762.50
2022-12-23T08:43:44.448Z,96760.75
2022-12-23T08:47:45.787Z,96764.22
2022-12-23T08:51:47.551Z,96759.22
2022-12-23T08:55:48.929Z,96758.19
2022-12-23T08:59:51.662Z,96772.75
2022-12-23T09:03:53.491Z,96790.19
2022-12-23T09:07:54.949Z,96800.56
2022-12-23T09:11:56.305Z,96801.66
2022-12-23T09:15:59.133Z,96808.78
2022-12-23T09:20:00.540Z,96810.75
2022-12-23T09:24:01.893Z,96799.28
2022-12-23T09:28:03.478Z,96798.66
2022-12-23T09:32:06.296Z,96796.22
2022-12-23T09:36:07.974Z,96796.22
2022-12-23T09:40:10.896Z,96806.41
2022-12-23T09:44:23.160Z,96799.16
2022-12-23T09:48:28.033Z,96805.38
2022-12-23T09:52:36.266Z,96801.63
2022-12-23T09:56:39.855Z,96806.31
2022-12-23T10:00:43.704Z,96800.13
2022-12-23T10:04:53.905Z,96797.94
2022-12-23T10:08:58.393Z,96795.53
2022-12-23T10:13:01.491Z,96793.28
2022-12-23T10:17:07.757Z,96797.72
2022-12-23T10:21:12.946Z,96795.03
2022-12-23T10:25:15.608Z,96786.81
2022-12-23T10:29:19.367Z,96786.91
2022-12-23T10:33:22.239Z,96785.06
2022-12-23T10:37:30.862Z,96786.13
2022-12-23T10:41:35.349Z,96784.00
2022-12-23T10:45:46.160Z,96788.56
2022-12-23T10:49:56.266Z,96779.13
2022-12-23T10:54:02.080Z,96768.56
2022-12-23T10:58:06.021Z,96768.69
2022-12-23T11:02:20.570Z,96757.22
2022-12-23T11:06:22.392Z,96745.56
2022-12-23T11:10:26.428Z,96748.72
2022-12-23T11:14:35.367Z,96748.78
2022-12-23T11:18:42.013Z,96744.41
2022-12-23T11:22:47.275Z,96747.03
2022-12-23T11:26:58.379Z,96754.50
2022-12-23T11:31:02.957Z,96749.28
2022-12-23T11:35:04.678Z,96738.88
2022-12-23T11:39:07.723Z,96741.63
2022-12-23T11:43:14.770Z,96744.72
2022-12-23T11:47:23.979Z,96732.50
2022-12-23T11:51:25.853Z,96730.03
2022-12-23T11:55:28.235Z,96727.13
2022-12-23T11:59:33.210Z,96732.66
2022-12-23T12:03:35.669Z,96730.25
2022-12-23T12:07:41.476Z,96726.66
2022-12-23T12:11:45.037Z,96729.28
2022-12-23T12:15:53.374Z,96715.94
2022-12-23T12:19:59.696Z,96711.53
2022-12-23T12:24:18.353Z,96711.38
2022-12-23T12:28:22.841Z,96708.63
2022-12-23T12:32:29.453Z,96707.47
2022-12-23T12:36:37.372Z,96705.53
2022-12-23T12:40:40.880Z,96699.03
2022-12-23T12:44:46.044Z,96697.88
2022-12-23T12:48:51.548Z,96693.50
2022-12-23T12:52:53.880Z,96684.06
2022-12-23T12:56:56.306Z,96683.25
2022-12-23T13:01:03.572Z,96678.72
2022-12-23T13:05:32.351Z,96669.59
2022-12-23T13:09:41.384Z,96666.00
2022-12-23T13:13:49.220Z,96658.34
2022-12-23T13:18:01.802Z,96658.84
2022-12-23T13:22:08.498Z,96652.53
2022-12-23T13:26:14.043Z,96652.84
2022-12-23T13:30:16.481Z,96634.13
2022-12-23T13:34:24.816Z,96634.78
2022-12-23T13:38:34.549Z,96637.69
2022-12-23T13:42:39.737Z,96628.59
2022-12-23T13:46:46.237Z,96629.53
2022-12-23T13:50:50.749Z,96619.94
2022-12-23T13:54:59.640Z,96611.63
2022-12-23T13:59:01.422Z,96605.94
2022-12-23T14:03:20.537Z,96600.56
2022-12-23T14:07:22.738Z,96590.50
2022-12-23T14:11:26.467Z,96586.59
2022-12-23T14:15:34.981Z,96582.22
2022-12-23T14:19:43.657Z,96583.34
2022-12-23T14:23:50.975Z,96576.38
2022-12-23T14:27:58.573Z,96578.63
2022-12-23T14:32:00.007Z,96557.56
2022-12-23T14:36:15.068Z,96562.13
2022-12-23T14:40:50.006Z,96552.88
2022-12-23T14:44:52.754Z,96548.31
2022-12-23T14:49:45.406Z,96539.56
2022-12-23T14:54:01.159Z,96534.06
2022-12-23T14:58:08.903Z,96539.09
2022-12-23T15:02:15.893Z,96537.28
2022-12-23T15:06:19.309Z,96538.13
2022-12-23T15:10:22.495Z,96531.28
2022-12-23T15:14:30.117Z,96531.09
2022-12-23T15:18:31.456Z,96522.81
2022-12-23T15:22:32.925Z,96524.47
2022-12-23T15:26:35.281Z,96514.88
2022-12-23T15:30:47.115Z,96518.00
2022-12-23T15:34:51.172Z,96533.91
2022-12-23T15:38:52.751Z,96518.31
2022-12-23T15:42:54.597Z,96516.69
2022-12-23T15:46:57.376Z,96518.97
2022-12-23T15:51:01.615Z,96517.81
2022-12-23T15:55:12.350Z,96514.09
2022-12-23T15:59:17.412Z,96501.75
2022-12-23T16:03:23.827Z,96494.59
2022-12-23T16:07:26.364Z,96487.78
2022-12-23T16:11:41.890Z,96485.81
2022-12-23T16:15:43.444Z,96485.50
2022-12-23T16:19:46.917Z,96484.50
2022-12-23T16:23:50.052Z,96480.59
2022-12-23T16:27:55.320Z,96473.13
2022-12-23T16:32:01.522Z,96470.81
2022-12-23T16:36:18.504Z,96460.41
2022-12-23T16:40:19.892Z,96462.06
2022-12-23T16:44:21.264Z,96453.91
2022-12-23T16:48:28.007Z,96449.84
2022-12-23T16:52:30.735Z,96442.84
2022-12-23T16:56:33.957Z,96439.44
2022-12-23T17:00:37.001Z,96443.50
2022-12-23T17:04:38.591Z,96430.31
2022-12-23T17:08:41.346Z,96427.91
2022-12-23T17:12:43.611Z,96435.03
2022-12-23T17:16:45.103Z,96426.25
2022-12-23T17:20:47.329Z,96426.09
2022-12-23T17:24:50.135Z,96433.75
2022-12-23T17:28:51.498Z,96418.31
2022-12-23T17:32:55.858Z,96430.66
2022-12-23T17:36:57.296Z,96421.72
2022-12-23T17:41:00.074Z,96415.34
2022-12-23T17:45:01.529Z,96424.97
2022-12-23T17:49:02.920Z,96421.31
2022-12-23T17:53:04.325Z,96416.59
2022-12-23T17:57:14.338Z,96419.38
2022-12-23T18:01:17.036Z,96424.84
2022-12-23T18:05:20.920Z,96418.81
2022-12-23T18:09:22.304Z,96421.25
2022-12-23T18:13:25.089Z,96416.00
2022-12-23T18:17:26.449Z,96409.47
2022-12-23T18:21:28.442Z,96415.78
2022-12-23T18:25:29.811Z,96404.72
2022-12-23T18:29:32.527Z,96407.59
2022-12-23T18:33:33.921Z,96406.81
2022-12-23T18:37:35.264Z,96414.75
2022-12-23T18:41:36.635Z,96417.81
2022-12-23T18:45:40.208Z,96413.41
2022-12-23T18:49:41.764Z,96421.31
2022-12-23T18:53:43.170Z,96424.91
2022-12-23T18:57:44.545Z,96420.84
2022-12-23T19:01:47.429Z,96423.41
2022-12-23T19:05:49.306Z,96419.84
2022-12-23T19:09:50.675Z,96421.63
2022-12-23T19:13:52.041Z,96424.69
2022-12-23T19:17:54.758Z,96425.13
2022-12-23T19:21:56.104Z,96442.41
2022-12-23T19:25:57.508Z,96439.44
2022-12-23T19:29:58.866Z,96448.88
2022-12-23T19:34:01.624Z,96437.59
2022-12-23T19:38:03.015Z,96441.53
2022-12-23T19:42:04.385Z,96442.34
2022-12-23T19:46:07.403Z,96451.69
2022-12-23T19:50:11.340Z,96465.22
2022-12-23T19:54:12.688Z,96453.34
2022-12-23T19:58:14.043Z,96456.31
2022-12-23T20:02:15.816Z,96468.31
2022-12-23T20:06:19.856Z,96479.53
2022-12-23T20:10:21.249Z,96468.47
2022-12-23T20:14:22.597Z,96468.91
2022-12-23T20:18:24.111Z,96482.75
2022-12-23T20:22:26.836Z,96476.72
2022-12-23T20:26:28.216Z,96495.41
2022-12-23T20:30:29.587Z,96495.28
2022-12-23T20:34:38.430Z,96485.88
2022-12-23T20:38:43.036Z,96489.66
2022-12-23T20:42:44.732Z,96500.41
2022-12-23T20:46:46.166Z,96495.47
2022-12-23T20:50:47.665Z,96502.13
2022-12-23T20:54:50.400Z,96510.44
2022-12-23T20:58:51.764Z,96511.59
2022-12-23T21:02:53.167Z,96507.53
2022-12-23T21:06:54.687Z,96512.28
2022-12-23T21:10:57.711Z,96514.91
2022-12-23T21:14:59.093Z,96516.38
2022-12-23T21:19:00.638Z,96514.16
2022-12-23T21:23:01.990Z,96531.75
2022-12-23T21:27:04.731Z,96538.09
2022-12-23T21:31:06.444Z,96544.47
2022-12-23T21:35:08.362Z,96554.94
2022-12-23T21:39:13.125Z,96568.81
2022-12-23T21:43:15.852Z,96564.88
2022-12-23T21:47:17.323Z,96576.06
2022-12-23T21:51:20.319Z,96600.31
2022-12-23T21:55:21.677Z,96621.78
2022-12-23T21:59:29.653Z,96599.50
2022-12-23T22:03:34.323Z,96610.25
2022-12-23T22:07:35.698Z,96618.91
2022-12-23T22:11:37.623Z,96614.84
2022-12-23T22:15:41.328Z,96607.84
2022-12-23T22:19:42.662Z,96608.81
2022-12-23T22:23:44.031Z,96616.16
2022-12-23T22:27:45.439Z,96620.06
2022-12-23T22:31:48.789Z,96624.91
2022-12-23T22:35:53.594Z,96632.41
2022-12-23T22:39:54.984Z,96625.59
2022-12-23T22:43:56.670Z,96648.91
2022-12-23T22:47:59.488Z,96657.34
2022-12-23T22:52:00.834Z,96659.81
2022-12-23T22:56:02.889Z,96654.75
2022-12-23T23:00:11.573Z,96664.84
2022-12-23T23:04:15.168Z,96679.81
2022-12-23T23:08:16.515Z,96684.19
2022-12-23T23:12:17.964Z,96698.19
2022-12-23T23:16:19.377Z,96705.16
2022-12-23T23:20:22.128Z,96698.81
2022-12-23T23:24:29.344Z,96700.94
2022-12-23T23:28:32.575Z,96711.50
2022-12-23T23:32:34.097Z,96721.09
2022-12-23T23:36:37.000Z,96725.03
2022-12-23T23:40:38.351Z,96721.78
2022-12-23T23:44:39.793Z,96730.88
2022-12-23T23:48:42.916Z,96738.53
2022-12-23T23:52:45.662Z,96757.59
2022-12-23T23:56:47.010Z,96764.25
